Time;durP1;ratioP1;P1;durP2;ratioP2;P2;SDS_P1;SDS_P2;PMS_P1;PMS_P2;Temp;Humidity;BMP_temperature;BMP_pressure;BME280_temperature;BME280_humidity;BME280_pressure;Samples;Min_cycle;Max_cycle;Signal;HPM_P1;HPM_P2
2021/03/24 00:01:10;;;;;;;94.28;42.50;;;;;;;;;;4909617;28;20047;-62
2021/03/24 00:03:36;;;;;;;99.93;44.10;;;;;;;;;;4925239;28;20047;-62
2021/03/24 00:06:05;;;;;;;98.68;43.55;;;;;;;;;;4925777;28;20046;-62
2021/03/24 00:08:31;;;;;;;97.90;41.85;;;;;;;;;;4915128;28;20046;-63
2021/03/24 00:10:59;;;;;;;102.50;42.70;;;;;;;;;;4909245;28;20027;-63
2021/03/24 00:13:30;;;;;;;103.93;43.67;;;;;;;;;;4916692;28;20065;-62
2021/03/24 00:15:56;;;;;;;93.28;43.70;;;;;;;;;;4912891;28;20107;-61
2021/03/24 00:18:22;;;;;;;93.72;41.40;;;;;;;;;;4922331;29;20288;-62
2021/03/24 00:20:48;;;;;;;100.28;44.42;;;;;;;;;;4915601;28;20039;-62
2021/03/24 00:23:14;;;;;;;97.65;42.80;;;;;;;;;;4912951;28;20047;-63
2021/03/24 00:25:43;;;;;;;91.93;42.70;;;;;;;;;;4916911;28;20494;-62
2021/03/24 00:28:12;;;;;;;98.20;42.80;;;;;;;;;;4911294;29;20576;-62
2021/03/24 00:30:40;;;;;;;96.78;43.30;;;;;;;;;;4905852;29;20050;-62
2021/03/24 00:33:06;;;;;;;90.95;44.03;;;;;;;;;;4927269;28;20059;-62
2021/03/24 00:35:32;;;;;;;89.05;42.53;;;;;;;;;;4911643;28;20047;-63
2021/03/24 00:37:59;;;;;;;95.80;42.85;;;;;;;;;;4916601;28;20074;-62
2021/03/24 00:40:27;;;;;;;96.63;43.25;;;;;;;;;;4924531;28;20089;-63
2021/03/24 00:42:53;;;;;;;90.88;42.08;;;;;;;;;;4907412;28;20075;-63
2021/03/24 00:45:19;;;;;;;94.68;44.25;;;;;;;;;;4907712;28;20892;-62
2021/03/24 00:47:47;;;;;;;97.90;44.35;;;;;;;;;;4928692;28;20036;-63
2021/03/24 00:50:17;;;;;;;92.78;43.47;;;;;;;;;;4910714;28;20044;-63
2021/03/24 00:52:43;;;;;;;96.15;43.50;;;;;;;;;;4908089;28;20044;-62
2021/03/24 00:55:09;;;;;;;97.32;43.72;;;;;;;;;;4912830;28;20517;-62
2021/03/24 00:57:37;;;;;;;102.80;45.33;;;;;;;;;;4915963;28;20493;-62
2021/03/24 01:00:06;;;;;;;94.07;43.55;;;;;;;;;;4911266;29;20074;-62
2021/03/24 01:02:32;;;;;;;92.07;44.42;;;;;;;;;;4907505;28;20053;-62
2021/03/24 01:04:58;;;;;;;86.00;43.58;;;;;;;;;;4912157;28;20039;-62
2021/03/24 01:07:27;;;;;;;95.95;43.60;;;;;;;;;;4907635;28;20131;-62
2021/03/24 01:09:55;;;;;;;89.95;43.38;;;;;;;;;;4908735;28;20413;-62
2021/03/24 01:12:21;;;;;;;102.95;43.70;;;;;;;;;;4912517;28;20100;-63
2021/03/24 01:14:47;;;;;;;92.85;43.10;;;;;;;;;;4914100;28;20449;-62
2021/03/24 01:17:15;;;;;;;92.78;45.33;;;;;;;;;;4919263;28;20482;-61
2021/03/24 01:19:43;;;;;;;103.32;45.25;;;;;;;;;;4909312;28;20442;-62
2021/03/24 01:22:08;;;;;;;99.70;44.38;;;;;;;;;;4920919;28;20036;-62
2021/03/24 01:24:34;;;;;;;93.32;42.35;;;;;;;;;;4917325;28;20522;-62
2021/03/24 01:27:00;;;;;;;97.65;44.83;;;;;;;;;;4918945;28;20040;-62
2021/03/24 01:29:26;;;;;;;92.53;43.42;;;;;;;;;;4911693;29;20036;-62
2021/03/24 01:31:52;;;;;;;90.45;43.35;;;;;;;;;;4907218;28;20032;-63
2021/03/24 01:34:18;;;;;;;95.68;44.10;;;;;;;;;;4911800;28;20119;-62
2021/03/24 01:36:46;;;;;;;100.68;43.58;;;;;;;;;;4914574;28;20036;-62
2021/03/24 01:39:15;;;;;;;92.50;42.63;;;;;;;;;;4920390;28;20107;-62
2021/03/24 01:41:41;;;;;;;97.10;42.90;;;;;;;;;;4904301;28;20134;-63
2021/03/24 01:44:06;;;;;;;94.18;44.53;;;;;;;;;;4911784;28;20118;-62
2021/03/24 01:46:44;;;;;;;101.72;45.88;;;;;;;;;;4926885;28;20028;-62
2021/03/24 01:49:16;;;;;;;90.68;43.30;;;;;;;;;;4913110;28;20095;-63
2021/03/24 01:51:44;;;;;;;99.60;43.65;;;;;;;;;;4907195;28;20047;-62
2021/03/24 01:54:12;;;;;;;100.28;45.17;;;;;;;;;;4916958;28;20036;-62
2021/03/24 01:56:39;;;;;;;91.78;44.42;;;;;;;;;;4917278;28;20039;-63
2021/03/24 01:59:06;;;;;;;97.18;45.40;;;;;;;;;;4918999;28;20091;-62
2021/03/24 02:01:34;;;;;;;99.53;44.47;;;;;;;;;;4921959;28;20462;-63
2021/03/24 02:04:02;;;;;;;96.90;44.78;;;;;;;;;;4913011;28;20043;-63
2021/03/24 02:06:47;;;;;;;101.80;45.92;;;;;;;;;;4912210;28;20051;-62
2021/03/24 02:09:25;;;;;;;101.63;44.50;;;;;;;;;;4907255;28;20417;-62
2021/03/24 02:11:56;;;;;;;96.18;44.47;;;;;;;;;;4911799;29;20443;-62
2021/03/24 02:14:45;;;;;;;104.07;45.65;;;;;;;;;;4912413;28;20398;-63
2021/03/24 02:17:11;;;;;;;98.53;46.78;;;;;;;;;;4904546;28;20512;-62
2021/03/24 02:19:46;;;;;;;105.65;48.05;;;;;;;;;;4909732;28;20115;-62
2021/03/24 02:22:14;;;;;;;105.63;48.95;;;;;;;;;;4924312;28;20044;-62
2021/03/24 02:24:57;;;;;;;118.00;48.83;;;;;;;;;;4924046;28;20047;-62
2021/03/24 02:27:28;;;;;;;109.60;49.05;;;;;;;;;;4910476;28;20543;-63
2021/03/24 02:30:01;;;;;;;101.95;47.10;;;;;;;;;;4918457;28;20086;-62
2021/03/24 02:32:29;;;;;;;101.32;47.28;;;;;;;;;;4918001;28;20639;-62
2021/03/24 02:35:03;;;;;;;110.13;48.67;;;;;;;;;;4912573;28;20032;-61
2021/03/24 02:37:31;;;;;;;109.63;48.13;;;;;;;;;;4916066;28;20040;-62
2021/03/24 02:39:57;;;;;;;114.65;49.47;;;;;;;;;;4920866;28;20088;-62
2021/03/24 02:42:26;;;;;;;116.30;49.47;;;;;;;;;;4929172;23;20414;-63
2021/03/24 02:44:53;;;;;;;110.20;47.70;;;;;;;;;;4907778;28;20084;-63
2021/03/24 02:47:21;;;;;;;108.43;46.63;;;;;;;;;;4912455;28;20466;-62
2021/03/24 02:49:52;;;;;;;118.88;50.38;;;;;;;;;;4910576;28;20036;-63
2021/03/24 02:52:21;;;;;;;111.25;48.42;;;;;;;;;;4923474;28;20130;-62
2021/03/24 02:54:47;;;;;;;111.38;49.60;;;;;;;;;;4915077;28;20529;-63
2021/03/24 02:57:18;;;;;;;117.20;49.55;;;;;;;;;;4920938;28;20406;-63
2021/03/24 02:59:46;;;;;;;118.10;51.63;;;;;;;;;;4922860;28;20092;-62
2021/03/24 03:02:20;;;;;;;122.55;50.50;;;;;;;;;;4910424;28;20074;-63
2021/03/24 03:04:48;;;;;;;118.65;50.53;;;;;;;;;;4902629;28;20044;-62
2021/03/24 03:07:16;;;;;;;116.85;48.90;;;;;;;;;;4906714;28;20051;-63
2021/03/24 03:09:58;;;;;;;109.80;50.15;;;;;;;;;;4911532;28;20122;-63
2021/03/24 03:12:33;;;;;;;109.40;47.42;;;;;;;;;;4913350;28;20047;-63
2021/03/24 03:15:00;;;;;;;119.25;48.38;;;;;;;;;;4910466;28;20674;-63
2021/03/24 03:17:48;;;;;;;117.30;47.30;;;;;;;;;;4914707;28;20040;-64
2021/03/24 03:20:18;;;;;;;114.05;48.38;;;;;;;;;;4912521;28;20036;-62
2021/03/24 03:22:49;;;;;;;112.40;49.95;;;;;;;;;;4910822;28;20048;-63
2021/03/24 03:25:18;;;;;;;112.65;49.42;;;;;;;;;;4911177;28;20123;-62
2021/03/24 03:27:45;;;;;;;115.68;50.88;;;;;;;;;;4918772;28;20494;-63
2021/03/24 03:30:13;;;;;;;120.88;52.13;;;;;;;;;;4910373;28;20055;-63
2021/03/24 03:32:40;;;;;;;118.68;51.72;;;;;;;;;;4896970;28;20542;-63
2021/03/24 03:35:14;;;;;;;114.32;48.42;;;;;;;;;;4917369;28;20042;-63
2021/03/24 03:37:43;;;;;;;124.28;49.33;;;;;;;;;;4908066;28;20100;-62
2021/03/24 03:40:11;;;;;;;115.97;51.10;;;;;;;;;;4911105;28;20085;-63
2021/03/24 03:42:38;;;;;;;122.13;51.33;;;;;;;;;;4910597;28;20094;-63
2021/03/24 03:45:04;;;;;;;121.95;51.47;;;;;;;;;;4916973;28;20450;-63
2021/03/24 03:47:32;;;;;;;118.03;49.65;;;;;;;;;;4912313;28;20036;-63
2021/03/24 03:49:58;;;;;;;117.97;51.15;;;;;;;;;;4914226;28;20525;-63
2021/03/24 03:52:33;;;;;;;116.72;52.20;;;;;;;;;;4919074;28;20078;-63
2021/03/24 03:54:59;;;;;;;116.82;49.22;;;;;;;;;;4907831;28;20121;-63
2021/03/24 03:57:31;;;;;;;117.70;51.85;;;;;;;;;;4911065;28;20038;-63
2021/03/24 04:00:09;;;;;;;125.43;52.08;;;;;;;;;;4903864;28;20028;-63
2021/03/24 04:02:37;;;;;;;115.88;49.85;;;;;;;;;;4901557;28;20482;-62
2021/03/24 04:05:12;;;;;;;123.25;52.03;;;;;;;;;;4904316;28;20039;-62
2021/03/24 04:07:57;;;;;;;116.05;50.78;;;;;;;;;;4908287;29;20409;-63
2021/03/24 04:10:24;;;;;;;107.15;47.95;;;;;;;;;;4914170;28;20629;-64
2021/03/24 04:12:53;;;;;;;117.15;51.00;;;;;;;;;;4919708;28;20405;-63
2021/03/24 04:15:22;;;;;;;117.43;51.22;;;;;;;;;;4916841;28;20035;-63
2021/03/24 04:17:50;;;;;;;114.13;49.13;;;;;;;;;;4912984;28;20069;-63
2021/03/24 04:20:18;;;;;;;121.25;51.90;;;;;;;;;;4909796;28;20067;-64
2021/03/24 04:22:48;;;;;;;124.13;51.05;;;;;;;;;;4904944;28;20149;-60
2021/03/24 04:25:18;;;;;;;117.47;52.25;;;;;;;;;;4907957;28;20047;-61
2021/03/24 04:27:48;;;;;;;114.55;51.20;;;;;;;;;;4910228;28;20048;-61
2021/03/24 04:30:15;;;;;;;117.60;51.22;;;;;;;;;;4909912;28;20078;-61
2021/03/24 04:32:44;;;;;;;125.82;52.05;;;;;;;;;;4897398;29;20501;-61
2021/03/24 04:35:13;;;;;;;120.90;51.55;;;;;;;;;;4903163;28;20457;-62
2021/03/24 04:37:44;;;;;;;132.00;53.45;;;;;;;;;;4910842;28;20127;-60
2021/03/24 04:40:19;;;;;;;120.03;51.25;;;;;;;;;;4915446;28;20058;-61
2021/03/24 04:42:49;;;;;;;124.55;51.72;;;;;;;;;;4909750;28;20107;-61
2021/03/24 04:45:27;;;;;;;124.63;52.08;;;;;;;;;;4909190;28;20094;-61
2021/03/24 04:47:54;;;;;;;118.93;51.97;;;;;;;;;;4906744;28;20039;-61
2021/03/24 04:50:24;;;;;;;123.93;52.67;;;;;;;;;;4910077;28;20466;-61
2021/03/24 04:52:53;;;;;;;123.57;53.42;;;;;;;;;;4905108;28;20046;-60
2021/03/24 04:55:22;;;;;;;126.15;53.90;;;;;;;;;;4912436;28;20054;-61
2021/03/24 04:57:50;;;;;;;118.47;49.92;;;;;;;;;;4913197;28;20048;-61
2021/03/24 05:00:39;;;;;;;115.32;52.25;;;;;;;;;;4912954;28;20138;-61
2021/03/24 05:03:17;;;;;;;119.88;51.72;;;;;;;;;;4902783;28;21231;-61
2021/03/24 05:05:52;;;;;;;118.40;51.75;;;;;;;;;;4906648;28;20043;-63
2021/03/24 05:08:27;;;;;;;118.85;52.65;;;;;;;;;;4903563;28;20646;-63
2021/03/24 05:11:01;;;;;;;126.30;52.45;;;;;;;;;;4903692;28;20043;-62
2021/03/24 05:13:47;;;;;;;124.07;52.13;;;;;;;;;;4904458;28;20235;-62
2021/03/24 05:16:23;;;;;;;123.47;52.17;;;;;;;;;;4912048;28;20097;-61
2021/03/24 05:18:54;;;;;;;126.13;52.80;;;;;;;;;;4911813;28;20047;-62
2021/03/24 05:21:29;;;;;;;125.53;52.55;;;;;;;;;;4909033;28;20044;-61
2021/03/24 05:23:57;;;;;;;129.48;54.53;;;;;;;;;;4896775;28;20044;-61
2021/03/24 05:26:43;;;;;;;130.57;53.10;;;;;;;;;;4901296;28;20071;-61
2021/03/24 05:29:12;;;;;;;130.75;54.17;;;;;;;;;;4897989;28;20868;-62
2021/03/24 05:31:44;;;;;;;125.93;53.72;;;12.40;54.40;;;;;;4909649;28;20762;-62
2021/03/24 05:34:27;;;;;;;135.75;55.63;;;11.20;57.80;;;;;;4902185;28;20126;-61
2021/03/24 05:36:54;;;;;;;128.35;54.05;;;11.00;58.30;;;;;;4898031;28;20098;-62
2021/03/24 05:39:25;;;;;;;137.90;58.70;;;11.00;58.40;;;;;;4896377;28;20513;-62
2021/03/24 05:42:07;;;;;;;132.55;56.45;;;10.90;58.50;;;;;;4913122;28;20040;-61
2021/03/24 05:45:01;;;;;;;131.68;55.67;;;10.80;58.40;;;;;;4898660;28;20046;-62
2021/03/24 05:47:57;;;;;;;139.55;54.70;;;10.80;58.50;;;;;;4909905;28;20070;-62
2021/03/24 05:50:58;;;;;;;131.75;53.13;;;10.70;58.40;;;;;;4904039;28;20099;-62
2021/03/24 05:53:37;;;;;;;139.65;54.80;;;10.60;58.40;;;;;;4904194;28;20046;-62
2021/03/24 05:56:11;;;;;;;133.63;54.85;;;10.50;58.50;;;;;;4916012;28;20041;-61
2021/03/24 05:58:55;;;;;;;142.23;54.83;;;10.40;58.60;;;;;;4908286;28;20131;-62
2021/03/24 06:01:34;;;;;;;139.15;55.17;;;10.30;58.60;;;;;;4903316;28;20052;-61
2021/03/24 06:04:16;;;;;;;143.98;56.25;;;10.30;58.80;;;;;;4918429;28;20040;-63
2021/03/24 06:07:08;;;;;;;140.82;55.97;;;10.30;59.00;;;;;;4912546;28;20043;-61
2021/03/24 06:09:41;;;;;;;151.52;58.05;;;10.20;59.00;;;;;;4917525;28;20394;-61
2021/03/24 06:12:35;;;;;;;144.10;58.85;;;10.20;59.20;;;;;;4910605;28;20032;-61
2021/03/24 06:15:07;;;;;;;150.18;56.95;;;10.30;59.40;;;;;;4894449;28;20593;-62
2021/03/24 06:18:03;;;;;;;153.13;60.40;;;10.30;59.50;;;;;;4918360;28;20040;-63
2021/03/24 06:20:43;;;;;;;144.25;56.72;;;10.30;59.60;;;;;;4915073;28;20040;-63
2021/03/24 06:23:28;;;;;;;140.93;56.10;;;10.30;59.70;;;;;;4915521;28;20039;-63
2021/03/24 06:26:21;;;;;;;143.55;56.17;;;10.50;59.80;;;;;;4911859;28;20126;-64
2021/03/24 06:29:08;;;;;;;139.43;58.17;;;10.60;59.90;;;;;;4913918;28;20044;-63
2021/03/24 06:32:15;;;;;;;145.57;57.70;;;10.70;59.90;;;;;;4912740;28;20055;-63
2021/03/24 06:35:03;;;;;;;151.48;59.63;;;10.80;59.80;;;;;;4916039;28;20040;-64
2021/03/24 06:38:02;;;;;;;144.77;57.53;;;10.80;59.80;;;;;;4918496;28;20469;-63
2021/03/24 06:40:50;;;;;;;141.80;57.92;;;10.90;59.90;;;;;;4916304;28;20055;-63
2021/03/24 06:43:22;;;;;;;143.30;57.17;;;11.00;59.80;;;;;;4923101;28;20054;-61
2021/03/24 06:46:09;;;;;;;139.40;58.80;;;11.00;59.80;;;;;;4921658;28;20101;-62
2021/03/24 06:49:03;;;;;;;129.20;57.33;;;11.10;59.70;;;;;;4933376;28;20110;-61
2021/03/24 06:52:13;;;;;;;132.07;57.60;;;11.10;59.60;;;;;;4918439;28;20043;-61
2021/03/24 06:55:07;;;;;;;133.95;57.42;;;11.20;59.90;;;;;;4923452;28;20460;-62
2021/03/24 06:57:57;;;;;;;135.63;55.80;;;11.40;59.70;;;;;;4921117;28;20126;-61
2021/03/24 07:00:53;;;;;;;121.35;54.90;;;11.50;59.60;;;;;;4917535;28;20051;-62
2021/03/24 07:03:43;;;;;;;129.63;56.03;;;11.60;59.50;;;;;;4923236;28;20452;-61
2021/03/24 07:06:17;;;;;;;127.57;56.17;;;;;;;;;;4908170;28;20047;-61
2021/03/24 07:09:02;;;;;;;126.90;57.35;;;;;;;;;;4928154;28;20043;-61
2021/03/24 07:11:41;;;;;;;128.57;58.95;;;;;;;;;;4922296;28;20031;-62
2021/03/24 07:14:25;;;;;;;118.28;53.88;;;;;;;;;;4926391;28;20498;-61
2021/03/24 07:17:06;;;;;;;121.78;53.13;;;;;;;;;;4920632;28;20054;-62
2021/03/24 07:19:45;;;;;;;121.80;54.35;;;;;;;;;;4918641;28;20184;-62
2021/03/24 07:22:30;;;;;;;121.78;55.33;;;;;;;;;;4913688;28;22319;-62
2021/03/24 07:25:08;;;;;;;111.80;53.17;;;;;;;;;;4913870;28;20643;-62
2021/03/24 07:27:51;;;;;;;113.35;52.20;;;;;;;;;;4930493;28;20036;-62
2021/03/24 07:30:28;;;;;;;116.80;55.70;;;;;;;;;;4908910;28;20060;-62
2021/03/24 07:33:08;;;;;;;117.78;52.97;;;;;;;;;;4913079;28;20035;-61
2021/03/24 07:35:46;;;;;;;115.07;54.17;;;;;;;;;;4899705;28;20120;-61
2021/03/24 07:38:17;;;;;;;119.00;52.13;;;;;;;;;;4912910;28;20590;-61
2021/03/24 07:41:03;;;;;;;112.25;52.03;;;;;;;;;;4913715;28;20042;-61
2021/03/24 07:43:43;;;;;;;111.05;52.47;;;;;;;;;;4910623;28;20076;-61
2021/03/24 07:46:28;;;;;;;111.03;53.22;;;;;;;;;;4924131;28;20091;-62
2021/03/24 07:49:15;;;;;;;127.45;54.55;;;;;;;;;;4918802;28;20050;-61
2021/03/24 07:52:18;;;;;;;117.93;53.03;;;11.70;59.40;;;;;;4912852;28;20091;-61
2021/03/24 07:55:00;;;;;;;117.53;54.22;;;13.40;56.10;;;;;;4918532;28;20050;-63
2021/03/24 07:57:45;;;;;;;123.47;56.20;;;13.30;56.20;;;;;;4923300;28;20031;-62
2021/03/24 08:00:35;;;;;;;115.75;54.25;;;13.40;56.40;;;;;;4905997;28;20047;-62
2021/03/24 08:03:13;;;;;;;119.80;54.45;;;13.40;56.40;;;;;;4898160;28;20122;-62
2021/03/24 08:05:51;;;;;;;113.53;52.58;;;;;;;;;;4889095;28;22775;-62
2021/03/24 08:08:45;;;;;;;122.85;55.47;;;13.50;56.30;;;;;;4885998;28;20043;-61
2021/03/24 08:11:41;;;;;;;120.55;54.35;;;13.70;56.00;;;;;;4883257;28;20048;-62
2021/03/24 08:14:24;;;;;;;114.03;54.33;;;13.80;56.10;;;;;;4895691;28;20135;-61
2021/03/24 08:17:24;;;;;;;116.20;52.83;;;14.00;55.90;;;;;;4895390;28;20036;-62
2021/03/24 08:20:06;;;;;;;112.03;51.08;;;14.30;56.10;;;;;;4892593;28;20044;-62
2021/03/24 08:22:32;;;;;;;107.13;52.65;;;;;;;;;;4905899;28;20040;-62
2021/03/24 08:25:34;;;;;;;105.68;51.72;;;14.60;55.30;;;;;;4919137;28;20038;-61
2021/03/24 08:28:09;;;;;;;115.07;53.40;;;14.90;54.40;;;;;;4913007;28;20039;-62
2021/03/24 08:30:44;;;;;;;108.28;52.28;;;15.10;54.50;;;;;;4930953;28;20040;-61
2021/03/24 08:33:27;;;;;;;105.95;53.85;;;15.40;54.40;;;;;;4918128;28;20040;-62
2021/03/24 08:36:18;;;;;;;110.35;51.92;;;15.70;53.90;;;;;;4916772;28;20513;-62
2021/03/24 08:39:02;;;;;;;100.85;51.20;;;16.30;54.30;;;;;;4914113;28;21018;-62
2021/03/24 08:42:06;;;;;;;104.95;50.50;;;17.40;53.70;;;;;;4912591;28;20545;-62
2021/03/24 08:44:59;;;;;;;94.50;50.13;;;18.80;51.30;;;;;;4930639;23;20051;-64
2021/03/24 08:47:26;;;;;;;91.82;49.00;;;;;;;;;;4909443;28;20053;-64
2021/03/24 08:49:56;;;;;;;92.22;49.67;;;;;;;;;;4909261;28;20828;-64
2021/03/24 08:52:47;;;;;;;90.85;50.25;;;;;;;;;;4912537;28;20043;-64
2021/03/24 08:55:47;;;;;;;98.97;50.42;;;20.10;48.70;;;;;;4934757;28;20060;-64
2021/03/24 08:58:13;;;;;;;90.43;49.08;;;;;;;;;;4902169;28;20039;-66
2021/03/24 09:00:58;;;;;;;88.40;49.47;;;;;;;;;;4936189;28;20379;-64
2021/03/24 09:03:38;;;;;;;89.45;49.08;;;;;;;;;;4905167;28;20044;-64
2021/03/24 09:06:22;;;;;;;92.63;49.88;;;;;;;;;;4912544;28;20407;-64
2021/03/24 09:09:28;;;;;;;85.07;48.63;;;23.20;40.60;;;;;;4909788;28;20082;-65
2021/03/24 09:11:59;;;;;;;95.15;50.47;;;;;;;;;;4906847;28;20557;-64
2021/03/24 09:14:33;;;;;;;91.05;49.05;;;;;;;;;;4910779;28;20039;-64
2021/03/24 09:17:05;;;;;;;82.82;49.03;;;;;;;;;;4942993;28;20030;-65
2021/03/24 09:19:38;;;;;;;88.53;50.38;;;;;;;;;;4905325;28;20035;-64
2021/03/24 09:22:03;;;;;;;84.35;48.95;;;;;;;;;;4910049;28;20455;-64
2021/03/24 09:24:38;;;;;;;87.38;47.42;;;;;;;;;;4907998;28;20076;-65
2021/03/24 09:27:27;;;;;;;79.60;46.25;;;;;;;;;;4909206;28;20127;-64
2021/03/24 09:30:03;;;;;;;86.82;48.17;;;;;;;;;;4902251;28;20107;-64
2021/03/24 09:32:36;;;;;;;78.63;45.47;;;;;;;;;;4901139;28;20042;-65
2021/03/24 09:35:20;;;;;;;81.10;47.28;;;;;;;;;;4914232;28;20585;-65
2021/03/24 09:37:49;;;;;;;77.20;44.83;;;;;;;;;;4911199;28;20058;-65
2021/03/24 09:40:25;;;;;;;79.68;44.95;;;;;;;;;;4929682;28;20811;-64
2021/03/24 09:42:52;;;;;;;74.75;44.83;;;;;;;;;;4910481;28;20434;-65
2021/03/24 09:45:21;;;;;;;75.25;45.67;;;;;;;;;;4909613;28;20048;-65
2021/03/24 09:48:11;;;;;;;78.72;45.58;;;;;;;;;;4911554;28;20040;-65
2021/03/24 09:51:02;;;;;;;76.90;45.78;;;;;;;;;;4907294;29;20131;-65
2021/03/24 09:53:29;;;;;;;70.50;43.55;;;;;;;;;;4908716;28;20527;-65
2021/03/24 09:55:54;;;;;;;70.90;41.40;;;;;;;;;;4906021;28;20047;-65
2021/03/24 09:58:24;;;;;;;69.93;42.78;;;;;;;;;;4913662;28;20103;-65
2021/03/24 10:00:57;;;;;;;65.45;40.30;;;;;;;;;;4906754;28;20051;-64
2021/03/24 10:03:41;;;;;;;68.38;42.53;;;;;;;;;;4908530;28;20410;-64
2021/03/24 10:06:10;;;;;;;71.47;40.58;;;;;;;;;;4909068;28;20033;-64
2021/03/24 10:08:41;;;;;;;70.10;41.15;;;;;;;;;;4913109;28;20047;-64
2021/03/24 10:11:09;;;;;;;68.88;41.83;;;;;;;;;;4905707;29;20043;-64
2021/03/24 10:13:47;;;;;;;64.13;38.50;;;;;;;;;;4943795;28;20036;-64
2021/03/24 10:16:26;;;;;;;62.03;36.20;;;;;;;;;;4913877;28;20059;-66
2021/03/24 10:19:04;;;;;;;64.88;36.33;;;;;;;;;;4936710;28;20051;-65
2021/03/24 10:21:48;;;;;;;59.55;35.60;;;;;;;;;;4904016;28;20075;-65
2021/03/24 10:24:14;;;;;;;63.80;37.78;;;;;;;;;;4939359;28;20036;-65
2021/03/24 10:26:49;;;;;;;61.03;37.58;;;;;;;;;;4908587;28;20054;-65
2021/03/24 10:29:17;;;;;;;61.70;37.33;;;;;;;;;;4909592;28;20040;-65
2021/03/24 10:31:46;;;;;;;60.35;36.25;;;;;;;;;;4905390;28;20127;-65
2021/03/24 10:34:28;;;;;;;61.92;35.70;;;;;;;;;;4911241;28;20067;-65
2021/03/24 10:37:18;;;;;;;58.65;36.80;;;;;;;;;;4911063;28;20032;-65
2021/03/24 10:39:55;;;;;;;55.15;32.70;;;;;;;;;;4889427;28;20111;-64
2021/03/24 10:42:24;;;;;;;54.28;34.75;;;;;;;;;;4880428;28;20044;-65
2021/03/24 10:45:00;;;;;;;58.92;33.17;;;;;;;;;;4881977;28;20044;-65
2021/03/24 10:47:40;;;;;;;55.20;34.33;;;;;;;;;;4883592;28;20414;-65
2021/03/24 10:50:13;;;;;;;61.33;34.90;;;;;;;;;;4882998;28;20140;-64
2021/03/24 10:52:44;;;;;;;53.55;32.63;;;;;;;;;;4887001;28;20532;-65
2021/03/24 10:55:20;;;;;;;58.80;33.30;;;;;;;;;;4875727;28;20040;-65
2021/03/24 10:57:50;;;;;;;56.28;34.60;;;;;;;;;;4886011;28;20532;-65
2021/03/24 11:00:25;;;;;;;56.95;34.47;;;;;;;;;;4886359;28;20070;-65
2021/03/24 11:03:14;;;;;;;54.00;32.22;;;;;;;;;;4940677;28;20178;-64
2021/03/24 11:05:43;;;;;;;59.22;33.80;;;;;;;;;;4903451;28;20398;-65
2021/03/24 11:08:11;;;;;;;53.95;33.17;;;;;;;;;;4912984;28;20051;-65
2021/03/24 11:10:56;;;;;;;57.75;35.30;;;;;;;;;;4908879;28;20052;-64
2021/03/24 11:13:42;;;;;;;60.08;35.35;;;;;;;;;;4942429;28;20131;-64
2021/03/24 11:16:19;;;;;;;54.15;34.72;;;;;;;;;;4903376;28;20123;-65
2021/03/24 11:18:48;;;;;;;54.20;34.72;;;;;;;;;;4914770;28;20052;-64
2021/03/24 11:21:25;;;;;;;56.28;33.63;;;;;;;;;;4913206;28;20784;-65
2021/03/24 11:23:52;;;;;;;59.42;35.13;;;;;;;;;;4911576;29;20051;-64
2021/03/24 11:26:18;;;;;;;55.65;34.33;;;25.40;35.80;;;;;;4912565;28;20039;-65
2021/03/24 11:28:46;;;;;;;60.15;35.22;;;31.30;23.20;;;;;;4910855;28;20036;-64
2021/03/24 11:31:14;;;;;;;57.40;33.90;;;30.50;23.90;;;;;;4911709;28;20103;-64
2021/03/24 11:33:49;;;;;;;59.80;34.08;;;30.20;23.80;;;;;;4908791;28;20054;-64
2021/03/24 11:36:28;;;;;;;52.60;31.95;;;29.90;24.20;;;;;;4912927;28;20105;-65
2021/03/24 11:39:17;;;;;;;50.47;31.08;;;29.70;24.40;;;;;;4910337;28;20476;-64
2021/03/24 11:41:44;;;;;;;53.55;31.83;;;29.90;24.20;;;;;;4910189;28;20107;-64
2021/03/24 11:44:15;;;;;;;54.85;32.92;;;30.00;23.90;;;;;;4917454;28;20048;-64
2021/03/24 11:46:46;;;;;;;52.75;32.38;;;30.00;23.90;;;;;;4912045;28;20046;-64
2021/03/24 11:49:25;;;;;;;49.13;31.50;;;30.10;23.90;;;;;;4911014;28;20202;-65
2021/03/24 11:52:09;;;;;;;55.72;32.20;;;30.20;23.80;;;;;;4913598;28;20046;-65
2021/03/24 11:54:48;;;;;;;50.28;31.90;;;30.30;23.90;;;;;;4910777;28;20179;-64
2021/03/24 11:57:47;;;;;;;48.92;32.22;;;30.30;23.90;;;;;;4939523;28;20050;-64
2021/03/24 12:00:52;;;;;;;49.13;29.90;;;30.30;24.70;;;;;;4910816;28;20043;-64
2021/03/24 12:03:45;;;;;;;46.92;28.55;;;30.20;23.70;;;;;;4919140;28;20064;-65
2021/03/24 12:06:37;;;;;;;54.53;31.08;;;29.50;24.20;;;;;;4912101;28;21066;-65
2021/03/24 12:09:10;;;;;;;49.28;28.20;;;28.80;25.10;;;;;;4887099;28;20035;-64
2021/03/24 12:11:39;;;;;;;43.83;25.95;;;28.40;25.20;;;;;;4893099;28;25582;-64
2021/03/24 12:14:27;;;;;;;42.13;25.90;;;28.10;25.50;;;;;;4904896;28;20095;-64
2021/03/24 12:17:00;;;;;;;43.03;26.80;;;;;;;;;;4889678;28;20371;-64
2021/03/24 12:19:30;;;;;;;45.55;27.48;;;;;;;;;;4885031;28;20048;-64
2021/03/24 12:22:00;;;;;;;45.53;26.58;;;27.70;25.80;;;;;;4916667;28;20032;-64
2021/03/24 12:24:30;;;;;;;45.90;26.38;;;;;;;;;;4887899;28;20126;-64
2021/03/24 12:27:15;;;;;;;45.92;25.50;;;;;;;;;;4916589;28;20046;-64
2021/03/24 12:29:45;;;;;;;45.45;25.27;;;;;;;;;;4885859;28;20047;-64
2021/03/24 12:32:34;;;;;;;46.88;26.40;;;;;;;;;;4907840;28;20051;-64
2021/03/24 12:35:01;;;;;;;45.63;25.98;;;;;;;;;;4906344;28;20032;-64
2021/03/24 12:37:30;;;;;;;45.08;25.77;;;;;;;;;;4898828;28;20043;-65
2021/03/24 12:40:18;;;;;;;42.92;24.20;;;;;;;;;;4903307;28;20031;-64
2021/03/24 12:42:45;;;;;;;45.25;24.10;;;;;;;;;;4900539;28;20032;-64
2021/03/24 12:45:28;;;;;;;42.85;24.52;;;;;;;;;;4894103;28;20666;-65
2021/03/24 12:48:05;;;;;;;44.63;24.52;;;;;;;;;;4899534;28;24355;-64
2021/03/24 12:50:37;;;;;;;41.58;23.23;;;;;;;;;;4904078;28;20586;-64
2021/03/24 12:53:18;;;;;;;43.78;24.40;;;;;;;;;;4906616;28;20042;-65
2021/03/24 12:55:44;;;;;;;44.63;24.27;;;;;;;;;;4932799;28;20040;-65
2021/03/24 12:58:21;;;;;;;53.10;25.23;;;;;;;;;;4880502;28;20044;-65
2021/03/24 13:00:48;;;;;;;46.45;25.13;;;;;;;;;;4880047;28;20119;-64
2021/03/24 13:03:14;;;;;;;42.53;25.27;;;;;;;;;;4910405;28;20050;-65
2021/03/24 13:05:41;;;;;;;42.88;24.02;;;;;;;;;;4889092;28;20036;-63
2021/03/24 13:08:35;;;;;;;46.97;25.80;;;26.50;26.90;;;;;;4942791;23;20532;-63
2021/03/24 13:11:11;;;;;;;43.00;25.45;;;;;;;;;;4921185;28;20047;-63
2021/03/24 13:13:50;;;;;;;52.13;25.80;;;;;;;;;;4927931;28;20134;-63
2021/03/24 13:16:35;;;;;;;48.90;27.15;;;;;;;;;;4912850;28;20444;-63
2021/03/24 13:19:01;;;;;;;45.33;26.63;;;;;;;;;;4908469;29;20134;-63
2021/03/24 13:21:33;;;;;;;45.72;25.10;;;;;;;;;;4902250;28;20036;-63
2021/03/24 13:24:02;;;;;;;45.90;25.77;;;;;;;;;;4909583;28;21869;-63
2021/03/24 13:26:31;;;;;;;50.85;25.02;;;;;;;;;;4915020;28;20413;-63
2021/03/24 13:29:05;;;;;;;47.08;25.05;;;;;;;;;;4907180;28;20035;-63
2021/03/24 13:31:42;;;;;;;48.10;25.27;;;23.80;29.90;;;;;;4899513;28;20091;-63
2021/03/24 13:34:17;;;;;;;43.47;25.02;;;;;;;;;;4922549;28;20036;-63
2021/03/24 13:36:46;;;;;;;46.90;25.02;;;;;;;;;;4908904;29;20043;-62
2021/03/24 13:39:14;;;;;;;49.63;24.63;;;;;;;;;;4906618;28;20110;-63
2021/03/24 13:41:50;;;;;;;45.00;24.02;;;;;;;;;;4899062;28;20043;-64
2021/03/24 13:44:19;;;;;;;49.75;25.30;;;;;;;;;;4901721;28;20066;-64
2021/03/24 13:46:49;;;;;;;48.20;25.52;;;23.10;31.20;;;;;;4902621;28;20040;-64
2021/03/24 13:49:18;;;;;;;50.25;26.17;;;22.80;31.80;;;;;;4917714;28;20040;-64
2021/03/24 13:51:50;;;;;;;48.33;25.13;;;22.60;32.60;;;;;;4907279;29;20114;-63
2021/03/24 13:54:36;;;;;;;46.67;24.85;;;22.40;33.50;;;;;;4923231;28;20672;-63
2021/03/24 13:57:23;;;;;;;50.72;26.58;;;22.20;33.20;;;;;;4909489;28;20135;-64
2021/03/24 14:00:08;;;;;;;46.38;25.90;;;22.10;34.00;;;;;;4906630;29;20063;-63
2021/03/24 14:02:39;;;;;;;47.55;25.90;;;22.00;34.20;;;;;;4901707;28;20047;-63
2021/03/24 14:05:17;;;;;;;53.55;27.15;;;22.20;34.10;;;;;;4906318;28;20682;-63
2021/03/24 14:08:21;;;;;;;45.97;26.25;;;22.30;33.90;;;;;;4902978;28;20052;-63
2021/03/24 14:11:15;;;;;;;47.33;24.13;;;22.40;33.70;;;;;;4905520;28;20031;-63
2021/03/24 14:13:40;;;;;;;46.72;26.23;;;22.40;33.40;;;;;;4926290;28;20038;-63
2021/03/24 14:16:38;;;;;;;48.53;25.80;;;22.30;33.40;;;;;;4910877;28;20036;-63
2021/03/24 14:19:21;;;;;;;50.60;25.52;;;22.30;33.50;;;;;;4900726;28;20071;-63
2021/03/24 14:21:47;;;;;;;45.15;25.00;;;22.10;33.50;;;;;;4907748;28;20054;-64
2021/03/24 14:24:41;;;;;;;52.28;27.55;;;21.90;33.80;;;;;;4913646;28;20044;-63
2021/03/24 14:27:32;;;;;;;51.05;26.88;;;21.80;34.60;;;;;;4908168;28;20051;-63